Time;durP1;ratioP1;P1;durP2;ratioP2;P2;SDS_P1;SDS_P2;PMS_P1;PMS_P2;Temp;Humidity;BMP_temperature;BMP_pressure;BME280_temperature;BME280_humidity;BME280_pressure;Samples;Min_cycle;Max_cycle;Signal;HPM_P1;HPM_P2
2021/05/14 00:01:55;;;;;;;13.27;11.93;;;9.00;89.40;;;;;;5135332;27;20050;-68
2021/05/14 00:04:21;;;;;;;12.47;11.17;;;9.00;89.60;;;;;;5134699;27;20311;-69
2021/05/14 00:06:48;;;;;;;12.80;11.60;;;9.00;89.50;;;;;;5135611;27;20297;-69
2021/05/14 00:09:16;;;;;;;13.90;12.40;;;9.00;89.40;;;;;;5135451;27;20292;-69
2021/05/14 00:11:42;;;;;;;13.33;12.03;;;9.00;89.30;;;;;;5134802;27;20300;-69
2021/05/14 00:14:09;;;;;;;13.27;11.97;;;9.10;89.30;;;;;;5135775;27;20720;-68
2021/05/14 00:16:35;;;;;;;13.50;11.77;;;9.10;89.20;;;;;;5135301;27;20300;-69
2021/05/14 00:19:01;;;;;;;12.83;11.57;;;9.20;89.20;;;;;;5134452;27;20489;-68
2021/05/14 00:21:28;;;;;;;12.83;11.53;;;9.10;89.00;;;;;;5135318;27;20326;-69
2021/05/14 00:23:53;;;;;;;12.17;10.97;;;9.20;89.90;;;;;;5134430;27;20088;-69
2021/05/14 00:26:19;;;;;;;12.57;11.37;;;9.10;88.80;;;;;;5135262;27;20297;-69
2021/05/14 00:28:45;;;;;;;14.90;11.93;;;9.10;88.90;;;;;;5135308;27;20088;-69
2021/05/14 00:31:11;;;;;;;12.07;10.93;;;9.10;89.10;;;;;;5134870;27;20391;-69
2021/05/14 00:33:37;;;;;;;14.83;12.17;;;9.10;89.20;;;;;;5135068;27;20051;-69
2021/05/14 00:36:03;;;;;;;13.70;12.40;;;9.10;89.20;;;;;;5135078;27;20323;-68
2021/05/14 00:38:34;;;;;;;13.35;11.95;;;9.00;89.20;;;;;;5134594;27;20055;-68
2021/05/14 00:41:00;;;;;;;13.27;11.97;;;9.00;89.30;;;;;;5134857;27;20043;-69
2021/05/14 00:43:25;;;;;;;14.00;12.43;;;9.00;89.40;;;;;;5135006;27;20315;-68
2021/05/14 00:45:51;;;;;;;13.47;12.07;;;9.00;89.60;;;;;;5134018;27;20127;-69
2021/05/14 00:48:17;;;;;;;13.40;12.10;;;9.00;89.50;;;;;;5134719;27;20576;-69
2021/05/14 00:50:42;;;;;;;13.37;12.07;;;9.10;89.30;;;;;;5134779;27;20111;-69
2021/05/14 00:53:08;;;;;;;14.37;12.13;;;9.10;89.10;;;;;;5134212;27;20051;-69
2021/05/14 00:55:34;;;;;;;15.23;13.77;;;9.20;89.00;;;;;;5134450;27;20303;-68
2021/05/14 00:58:00;;;;;;;17.47;15.17;;;9.20;89.00;;;;;;5134564;27;20047;-68
2021/05/14 01:00:26;;;;;;;15.47;13.73;;;9.20;89.00;;;;;;5133393;27;20499;-68
2021/05/14 01:02:53;;;;;;;15.03;13.40;;;9.10;89.00;;;;;;5134481;27;20059;-68
2021/05/14 01:05:22;;;;;;;14.50;12.90;;;9.00;89.20;;;;;;5134216;27;20780;-68
2021/05/14 01:07:50;;;;;;;13.40;12.00;;;9.00;89.50;;;;;;5133606;27;20848;-68
2021/05/14 01:10:17;;;;;;;14.07;12.67;;;8.90;89.40;;;;;;5133617;27;20358;-69
2021/05/14 01:12:43;;;;;;;14.03;12.53;;;8.90;89.50;;;;;;5134264;27;20384;-69
2021/05/14 01:15:09;;;;;;;16.03;13.83;;;9.00;89.70;;;;;;5133857;27;20304;-68
2021/05/14 01:17:35;;;;;;;15.57;13.97;;;8.90;89.50;;;;;;5134086;27;20403;-68
2021/05/14 01:20:02;;;;;;;15.90;14.40;;;8.90;89.60;;;;;;5133395;27;20487;-68
2021/05/14 01:22:28;;;;;;;17.17;15.03;;;8.90;89.60;;;;;;5133992;27;20096;-68
2021/05/14 01:24:54;;;;;;;18.33;16.23;;;8.90;89.60;;;;;;5134055;27;20375;-68
2021/05/14 01:27:20;;;;;;;19.83;17.63;;;8.90;89.60;;;;;;5133330;27;20300;-68
2021/05/14 01:29:46;;;;;;;21.27;17.47;;;8.90;89.80;;;;;;5133531;27;20304;-68
2021/05/14 01:32:13;;;;;;;20.80;18.53;;;8.80;90.00;;;;;;5134206;27;20076;-68
2021/05/14 01:34:39;;;;;;;25.00;19.33;;;8.80;90.00;;;;;;5133477;27;20122;-68
2021/05/14 01:37:04;;;;;;;24.67;18.50;;;8.80;90.00;;;;;;5133534;27;20354;-68
2021/05/14 01:39:30;;;;;;;22.40;18.87;;;8.80;90.00;;;;;;5133532;27;20047;-68
2021/05/14 01:41:56;;;;;;;19.97;17.43;;;8.80;90.10;;;;;;5132896;27;20384;-68
2021/05/14 01:44:23;;;;;;;23.80;19.63;;;8.80;90.20;;;;;;5133644;27;20047;-68
2021/05/14 01:46:49;;;;;;;25.53;19.67;;;8.80;90.20;;;;;;5133722;27;20043;-68
2021/05/14 01:49:15;;;;;;;26.87;19.40;;;8.80;90.30;;;;;;5132902;27;20695;-68
2021/05/14 01:51:41;;;;;;;21.80;18.73;;;8.80;90.40;;;;;;5133408;27;20289;-69
2021/05/14 01:54:07;;;;;;;24.23;20.30;;;8.90;90.40;;;;;;5133587;27;20053;-68
2021/05/14 01:56:33;;;;;;;23.80;18.43;;;8.90;90.40;;;;;;5132610;27;20305;-68
2021/05/14 01:58:59;;;;;;;25.10;19.13;;;9.00;90.40;;;;;;5133134;27;20058;-69
2021/05/14 02:01:25;;;;;;;25.20;20.97;;;9.10;90.40;;;;;;5133112;27;20296;-68
2021/05/14 02:03:51;;;;;;;22.40;18.57;;;9.10;90.30;;;;;;5132631;27;20043;-68
2021/05/14 02:06:17;;;;;;;23.93;19.27;;;9.10;90.40;;;;;;5133144;27;20307;-68
2021/05/14 02:08:43;;;;;;;22.93;17.63;;;9.10;90.30;;;;;;5133014;27;20047;-68
2021/05/14 02:11:09;;;;;;;24.83;19.00;;;9.10;90.30;;;;;;5132823;27;20047;-68
2021/05/14 02:13:40;;;;;;;22.37;18.00;;;9.10;90.30;;;;;;5133131;27;20083;-68
2021/05/14 02:16:06;;;;;;;24.63;18.20;;;9.10;90.40;;;;;;5133367;27;20297;-68
2021/05/14 02:18:33;;;;;;;23.00;18.10;;;9.10;90.40;;;;;;5131513;27;20841;-68
2021/05/14 02:20:59;;;;;;;28.43;19.60;;;9.20;90.50;;;;;;5132682;27;20376;-68
2021/05/14 02:23:25;;;;;;;25.73;19.63;;;9.20;90.50;;;;;;5131909;27;20300;-68
2021/05/14 02:25:51;;;;;;;24.43;19.83;;;9.10;90.50;;;;;;5133070;27;20289;-68
2021/05/14 02:28:17;;;;;;;27.37;20.87;;;9.10;90.60;;;;;;5132945;27;20055;-69
2021/05/14 02:30:43;;;;;;;28.33;20.50;;;9.10;90.80;;;;;;5132282;27;20070;-68
2021/05/14 02:33:09;;;;;;;27.07;21.57;;;9.00;90.70;;;;;;5131902;27;20043;-68
2021/05/14 02:35:35;;;;;;;26.70;21.10;;;9.00;90.90;;;;;;5130696;27;20072;-68
2021/05/14 02:38:01;;;;;;;25.70;21.03;;;9.00;91.00;;;;;;5129926;27;20051;-68
2021/05/14 02:40:27;;;;;;;29.67;21.10;;;9.00;91.10;;;;;;5130387;27;20800;-68
2021/05/14 02:42:53;;;;;;;30.33;22.00;;;9.00;91.20;;;;;;5130813;27;20297;-68
2021/05/14 02:45:19;;;;;;;23.83;19.60;;;9.00;91.20;;;;;;5129882;27;20035;-68
2021/05/14 02:47:44;;;;;;;21.93;17.10;;;8.90;91.30;;;;;;5131144;27;20051;-68
2021/05/14 02:50:11;;;;;;;23.13;17.43;;;8.90;91.50;;;;;;5132662;27;20168;-68
2021/05/14 02:52:37;;;;;;;21.77;18.00;;;8.90;91.40;;;;;;5131580;27;20043;-68
2021/05/14 02:55:05;;;;;;;21.07;17.03;;;8.90;91.50;;;;;;5132529;27;20347;-68
2021/05/14 02:57:31;;;;;;;21.00;16.60;;;8.90;91.60;;;;;;5132645;27;20729;-68
2021/05/14 02:59:56;;;;;;;18.83;15.37;;;8.90;91.60;;;;;;5131643;27;20296;-68
2021/05/14 03:02:22;;;;;;;19.17;15.20;;;8.90;91.60;;;;;;5132604;27;20051;-68
2021/05/14 03:04:48;;;;;;;16.53;13.93;;;8.80;91.60;;;;;;5132808;27;20050;-68
2021/05/14 03:07:14;;;;;;;18.07;14.43;;;8.90;91.70;;;;;;5131514;27;20043;-68
2021/05/14 03:09:40;;;;;;;18.93;14.53;;;8.90;91.70;;;;;;5132611;27;20630;-68
2021/05/14 03:12:06;;;;;;;19.67;13.87;;;8.80;91.60;;;;;;5132807;28;20059;-68
2021/05/14 03:14:31;;;;;;;16.97;13.00;;;8.80;91.50;;;;;;5131703;28;20091;-68
2021/05/14 03:16:59;;;;;;;18.80;12.87;;;8.80;91.60;;;;;;5132364;27;20047;-68
2021/05/14 03:19:25;;;;;;;18.57;13.57;;;8.90;91.60;;;;;;5132337;27;20047;-68
2021/05/14 03:21:50;;;;;;;16.40;12.83;;;8.90;91.60;;;;;;5131713;28;20296;-68
2021/05/14 03:24:17;;;;;;;18.03;13.37;;;8.90;91.50;;;;;;5131989;28;20054;-68
2021/05/14 03:26:44;;;;;;;19.03;12.63;;;8.90;91.50;;;;;;5131574;27;20134;-68
2021/05/14 03:29:10;;;;;;;19.60;11.97;;;8.90;91.50;;;;;;5132667;27;20303;-68
2021/05/14 03:31:35;;;;;;;18.40;12.40;;;8.90;91.40;;;;;;5132111;27;20384;-68
2021/05/14 03:34:01;;;;;;;16.90;12.03;;;9.00;91.40;;;;;;5134287;27;20043;-68
2021/05/14 03:36:27;;;;;;;19.00;11.10;;;9.00;91.30;;;;;;5136165;27;20058;-68
2021/05/14 03:38:52;;;;;;;13.37;9.80;;;9.00;91.30;;;;;;5135793;27;20112;-68
2021/05/14 03:41:31;;;;;;;13.07;8.47;;;9.00;91.20;;;;;;5135072;27;20043;-68
2021/05/14 03:43:58;;;;;;;11.47;7.53;;;9.00;91.00;;;;;;5136025;27;20047;-68
2021/05/14 03:46:31;;;;;;;10.87;8.27;;;9.00;90.90;;;;;;5135973;27;20301;-68
2021/05/14 03:48:56;;;;;;;15.20;9.27;;;9.00;90.80;;;;;;5135343;27;20711;-68
2021/05/14 03:51:23;;;;;;;14.03;8.97;;;9.00;90.70;;;;;;5135826;27;20388;-68
2021/05/14 03:53:48;;;;;;;13.33;8.63;;;9.10;90.70;;;;;;5135862;27;20078;-68
2021/05/14 03:56:15;;;;;;;15.27;8.10;;;9.10;90.70;;;;;;5135104;27;20304;-69
2021/05/14 03:58:43;;;;;;;11.77;7.33;;;9.10;90.50;;;;;;5135585;27;20393;-68
2021/05/14 04:01:09;;;;;;;14.13;7.67;;;9.10;90.40;;;;;;5135652;27;20207;-68
2021/05/14 04:03:41;;;;;;;10.47;7.03;;;9.20;90.40;;;;;;5135080;27;20653;-68
2021/05/14 04:06:06;;;;;;;10.50;6.38;;;9.20;90.30;;;;;;5136023;27;20073;-68
2021/05/14 04:08:33;;;;;;;13.47;6.07;;;9.20;90.20;;;;;;5135165;27;20464;-68
2021/05/14 04:14:30;;;;;;;11.93;6.33;;;9.20;89.80;;;;;;5135288;27;20332;-68
2021/05/14 04:16:24;;;;;;;13.80;6.53;;;9.20;89.70;;;;;;5124940;27;20302;-68
2021/05/14 04:18:50;;;;;;;15.10;7.10;;;9.10;89.50;;;;;;5135093;27;20788;-68
2021/05/14 04:21:19;;;;;;;12.97;6.17;;;9.20;89.60;;;;;;5135144;27;20480;-68
2021/05/14 04:23:44;;;;;;;11.70;6.60;;;9.20;89.50;;;;;;5134509;27;20297;-68
2021/05/14 04:26:10;;;;;;;16.13;6.60;;;9.20;89.50;;;;;;5135351;27;20054;-68
2021/05/14 04:28:36;;;;;;;12.50;6.77;;;9.20;89.40;;;;;;5135058;27;20415;-68
2021/05/14 04:31:01;;;;;;;15.30;7.20;;;9.20;89.40;;;;;;5134239;27;20042;-68
2021/05/14 04:33:27;;;;;;;13.47;6.87;;;9.20;89.30;;;;;;5135106;27;20535;-68
2021/05/14 04:35:54;;;;;;;12.43;7.40;;;9.20;89.20;;;;;;5134961;27;20050;-68
2021/05/14 04:38:20;;;;;;;13.73;8.20;;;9.20;89.10;;;;;;5134024;27;20073;-68
2021/05/14 04:40:45;;;;;;;16.27;7.80;;;9.20;88.90;;;;;;5134731;27;20765;-68
2021/05/14 04:43:11;;;;;;;16.00;7.97;;;9.20;88.90;;;;;;5135319;27;20061;-68
2021/05/14 04:45:37;;;;;;;12.60;6.93;;;9.20;88.90;;;;;;5132783;27;20047;-67
2021/05/14 04:48:05;;;;;;;11.60;7.10;;;9.20;88.80;;;;;;5134956;27;20043;-68
2021/05/14 04:50:30;;;;;;;14.73;7.57;;;9.20;88.90;;;;;;5134724;27;20055;-68
2021/05/14 04:53:02;;;;;;;13.73;6.60;;;9.20;88.90;;;;;;5133885;27;20773;-68
2021/05/14 04:55:27;;;;;;;13.15;7.18;;;9.20;88.90;;;;;;5134111;27;20122;-67
2021/05/14 04:57:53;;;;;;;13.13;7.43;;;9.20;89.00;;;;;;5134499;27;20108;-67
2021/05/14 05:00:20;;;;;;;14.80;7.47;;;9.20;88.80;;;;;;5133212;27;21090;-67
2021/05/14 05:02:45;;;;;;;11.30;6.17;;;9.20;88.70;;;;;;5134519;27;20142;-68
2021/05/14 05:05:11;;;;;;;13.90;6.20;;;9.20;88.60;;;;;;5133857;27;20368;-67
2021/05/14 05:07:37;;;;;;;11.07;6.43;;;9.20;88.50;;;;;;5134355;27;20043;-67
2021/05/14 05:10:03;;;;;;;13.20;6.40;;;9.20;88.50;;;;;;5133987;27;20305;-67
2021/05/14 05:12:29;;;;;;;13.07;5.33;;;9.20;88.50;;;;;;5133470;27;20058;-67
2021/05/14 05:14:54;;;;;;;14.17;5.50;;;9.30;88.50;;;;;;5134085;27;20645;-67
2021/05/14 05:17:28;;;;;;;10.20;4.93;;;9.40;89.10;;;;;;5133939;27;20066;-67
2021/05/14 05:19:55;;;;;;;12.37;6.07;;;9.40;87.90;;;;;;5133096;27;20297;-67
2021/05/14 05:22:21;;;;;;;10.43;5.93;;;9.40;87.80;;;;;;5133956;27;20073;-68
2021/05/14 05:24:47;;;;;;;11.77;5.27;;;9.40;87.50;;;;;;5133266;27;20345;-68
2021/05/14 05:27:13;;;;;;;11.67;6.33;;;9.40;87.40;;;;;;5131620;27;20293;-67
2021/05/14 05:29:39;;;;;;;12.17;5.40;;;9.40;87.10;;;;;;5133898;27;20077;-67
2021/05/14 05:32:06;;;;;;;11.67;5.40;;;9.40;87.30;;;;;;5133344;27;20645;-67
2021/05/14 05:34:32;;;;;;;9.67;5.27;;;9.50;87.30;;;;;;5132739;27;20300;-67
2021/05/14 05:36:57;;;;;;;10.80;5.47;;;9.50;87.30;;;;;;5133462;27;20281;-67
2021/05/14 05:39:23;;;;;;;8.90;5.43;;;9.50;87.20;;;;;;5132985;27;20047;-67
2021/05/14 05:41:49;;;;;;;12.50;5.77;;;9.50;87.30;;;;;;5132514;27;20043;-67
2021/05/14 05:44:15;;;;;;;13.00;5.80;;;9.50;87.40;;;;;;5133212;27;20047;-68
2021/05/14 05:46:41;;;;;;;13.63;5.53;;;9.60;87.20;;;;;;5133229;27;20398;-68
2021/05/14 05:49:06;;;;;;;10.13;5.50;;;9.60;87.10;;;;;;5132754;27;20487;-67
2021/05/14 05:51:33;;;;;;;11.20;5.57;;;9.60;87.00;;;;;;5133055;27;20095;-67
2021/05/14 05:53:59;;;;;;;16.67;5.73;;;9.60;86.90;;;;;;5132877;27;20367;-67
2021/05/14 05:56:25;;;;;;;14.33;5.50;;;9.70;87.00;;;;;;5131467;27;20377;-68
2021/05/14 05:58:53;;;;;;;9.20;5.47;;;9.70;87.00;;;;;;5132594;27;20396;-67
2021/05/14 06:01:19;;;;;;;12.63;5.70;;;9.70;87.00;;;;;;5132349;27;20307;-68
2021/05/14 06:03:45;;;;;;;14.67;6.47;;;9.80;87.10;;;;;;5132588;27;20323;-68
2021/05/14 06:06:10;;;;;;;11.07;5.83;;;9.80;86.70;;;;;;5132951;27;20471;-68
2021/05/14 06:08:37;;;;;;;13.63;5.37;;;9.80;86.80;;;;;;5131888;27;20043;-68
2021/05/14 06:11:03;;;;;;;14.20;5.97;;;9.90;86.80;;;;;;5132477;27;20487;-67
2021/05/14 06:13:30;;;;;;;13.47;6.17;;;9.90;86.70;;;;;;5132598;27;20304;-67
2021/05/14 06:15:59;;;;;;;12.27;6.03;;;9.90;86.70;;;;;;5129198;27;20296;-68
2021/05/14 06:18:26;;;;;;;9.87;5.20;;;9.90;86.70;;;;;;5133006;27;20316;-67
2021/05/14 06:20:52;;;;;;;13.17;5.80;;;9.90;86.60;;;;;;5133122;27;20328;-67
2021/05/14 06:23:18;;;;;;;15.27;5.67;;;9.90;86.50;;;;;;5131853;27;20687;-69
2021/05/14 06:25:43;;;;;;;11.37;5.37;;;10.00;86.30;;;;;;5131914;27;20301;-67
2021/05/14 06:28:16;;;;;;;10.57;5.53;;;10.00;86.10;;;;;;5132862;27;20058;-69
2021/05/14 06:30:42;;;;;;;13.90;5.93;;;10.00;86.10;;;;;;5131806;27;20047;-68
2021/05/14 06:33:08;;;;;;;11.47;5.23;;;9.90;85.90;;;;;;5132655;27;20307;-68
2021/05/14 06:35:34;;;;;;;11.23;5.00;;;9.90;85.90;;;;;;5132510;27;20055;-68
2021/05/14 06:38:00;;;;;;;12.13;5.67;;;10.00;86.00;;;;;;5131688;27;20128;-69
2021/05/14 06:40:25;;;;;;;11.03;5.17;;;10.00;85.80;;;;;;5132616;27;20347;-67
2021/05/14 06:42:51;;;;;;;11.03;5.47;;;10.00;85.60;;;;;;5132561;27;20538;-68
2021/05/14 06:45:17;;;;;;;11.17;5.03;;;10.00;85.50;;;;;;5131816;27;20043;-68
2021/05/14 06:47:42;;;;;;;14.37;5.93;;;10.00;85.40;;;;;;5132217;27;20143;-68
2021/05/14 06:50:08;;;;;;;11.50;5.33;;;10.00;85.40;;;;;;5132685;27;20043;-67
2021/05/14 06:52:36;;;;;;;12.20;5.50;;;10.10;85.30;;;;;;5131331;27;20047;-68
2021/05/14 06:55:05;;;;;;;12.53;5.20;;;10.10;85.10;;;;;;5132464;27;20304;-68
2021/05/14 06:57:33;;;;;;;14.88;5.65;;;10.10;85.00;;;;;;5132235;27;20054;-67
2021/05/14 06:59:59;;;;;;;13.10;6.23;;;10.10;85.00;;;;;;5131779;27;20039;-67
2021/05/14 07:02:25;;;;;;;15.20;6.00;;;10.10;84.90;;;;;;5132048;28;20387;-68
2021/05/14 07:04:50;;;;;;;11.30;5.33;;;10.20;85.00;;;;;;5131387;28;20455;-68
2021/05/14 07:07:17;;;;;;;13.43;6.20;;;10.20;85.00;;;;;;5132194;27;20491;-67
2021/05/14 07:09:44;;;;;;;15.97;6.83;;;10.20;84.60;;;;;;5136642;27;20441;-68
2021/05/14 07:12:12;;;;;;;12.47;5.73;;;10.20;84.50;;;;;;5136290;27;20138;-68
2021/05/14 07:14:38;;;;;;;12.60;5.97;;;10.20;84.50;;;;;;5136889;27;20058;-67
2021/05/14 07:17:04;;;;;;;11.93;6.10;;;10.20;84.50;;;;;;5136480;27;20047;-67
2021/05/14 07:19:39;;;;;;;14.83;6.60;;;10.20;84.20;;;;;;5135871;27;20077;-66
2021/05/14 07:22:05;;;;;;;15.47;6.10;;;10.20;84.60;;;;;;5136205;27;20107;-68
2021/05/14 07:24:32;;;;;;;12.90;6.30;;;10.20;84.30;;;;;;5136098;27;20054;-67
2021/05/14 07:26:58;;;;;;;11.03;5.73;;;10.20;84.50;;;;;;5135454;27;20043;-67
2021/05/14 07:29:24;;;;;;;11.77;6.20;;;10.30;84.30;;;;;;5136130;27;20078;-68
2021/05/14 07:31:50;;;;;;;17.40;7.37;;;10.30;84.30;;;;;;5135844;27;20324;-67
2021/05/14 07:34:15;;;;;;;13.27;7.07;;;10.30;84.20;;;;;;5135214;27;20050;-68
2021/05/14 07:36:41;;;;;;;18.37;7.40;;;10.30;84.10;;;;;;5135902;27;20488;-68
2021/05/14 07:39:07;;;;;;;13.10;7.00;;;10.30;83.90;;;;;;5136097;27;20055;-67
2021/05/14 07:41:33;;;;;;;14.20;6.93;;;10.40;84.10;;;;;;5135374;27;20054;-67
2021/05/14 07:43:58;;;;;;;14.17;8.20;;;10.40;83.90;;;;;;5135867;27;20055;-67
2021/05/14 07:46:25;;;;;;;15.17;9.50;;;10.40;83.80;;;;;;5136066;27;20176;-67
2021/05/14 07:48:50;;;;;;;21.20;9.20;;;10.40;83.80;;;;;;5134865;27;20069;-67
2021/05/14 07:51:16;;;;;;;18.23;9.13;;;10.40;83.90;;;;;;5135866;27;20428;-68
2021/05/14 07:53:42;;;;;;;13.50;8.20;;;10.40;83.80;;;;;;5135671;27;20055;-68
2021/05/14 07:56:08;;;;;;;17.63;8.27;;;10.40;83.60;;;;;;5135124;27;20043;-68
2021/05/14 07:58:37;;;;;;;15.33;8.67;;;10.40;83.60;;;;;;5136065;27;20134;-68
2021/05/14 08:01:04;;;;;;;16.40;7.87;;;10.50;83.50;;;;;;5134606;27;20063;-67
2021/05/14 08:03:29;;;;;;;16.93;8.53;;;10.50;83.40;;;;;;5135269;27;20047;-68
2021/05/14 08:05:55;;;;;;;14.67;8.27;;;10.60;83.10;;;;;;5135650;27;20043;-67
2021/05/14 08:08:23;;;;;;;19.67;7.60;;;10.70;82.90;;;;;;5134881;27;20432;-67
2021/05/14 08:10:54;;;;;;;15.63;7.93;;;10.70;82.90;;;;;;5135593;27;20043;-67
2021/05/14 08:13:21;;;;;;;11.73;7.47;;;10.70;82.40;;;;;;5135211;27;20488;-68
2021/05/14 08:15:48;;;;;;;17.07;7.53;;;10.80;82.10;;;;;;5134705;27;20051;-68
2021/05/14 08:18:13;;;;;;;12.67;6.63;;;10.80;82.20;;;;;;5135125;27;20051;-68
2021/05/14 08:20:41;;;;;;;11.93;5.53;;;10.90;81.90;;;;;;5135511;27;20054;-68
2021/05/14 08:23:08;;;;;;;12.53;5.90;;;10.90;81.60;;;;;;5134575;27;20058;-68
2021/05/14 08:25:37;;;;;;;15.83;5.57;;;11.00;81.50;;;;;;5135221;27;20191;-68
2021/05/14 08:28:03;;;;;;;12.90;6.03;;;11.00;81.10;;;;;;5135397;27;20047;-68
2021/05/14 08:30:29;;;;;;;11.07;5.67;;;11.10;80.80;;;;;;5133949;27;20510;-68
2021/05/14 08:33:02;;;;;;;12.53;5.90;;;11.20;80.60;;;;;;5135194;27;20130;-68
2021/05/14 08:35:28;;;;;;;16.63;6.90;;;11.30;80.50;;;;;;5135175;27;20131;-68
2021/05/14 08:37:54;;;;;;;11.83;6.17;;;11.30;80.30;;;;;;5134188;27;20066;-68
2021/05/14 08:40:20;;;;;;;12.03;6.00;;;11.40;80.00;;;;;;5134702;27;20092;-68
2021/05/14 08:42:45;;;;;;;14.67;6.90;;;11.50;79.90;;;;;;5134483;27;20565;-68
2021/05/14 08:45:32;;;;;;;12.63;6.70;;;11.50;79.60;;;;;;5133847;27;20079;-68
2021/05/14 08:47:58;;;;;;;14.50;7.43;;;11.60;79.50;;;;;;5134506;27;20079;-68
2021/05/14 08:50:29;;;;;;;11.50;6.40;;;11.70;79.40;;;;;;5133802;27;20051;-68
2021/05/14 08:52:57;;;;;;;12.50;5.83;;;11.80;78.90;;;;;;5134576;27;20051;-68
2021/05/14 08:55:24;;;;;;;13.60;6.73;;;11.70;78.70;;;;;;5134202;27;20120;-68
2021/05/14 08:57:51;;;;;;;13.47;6.00;;;11.80;78.40;;;;;;5133330;27;20137;-68
2021/05/14 09:00:19;;;;;;;12.90;6.40;;;11.80;78.10;;;;;;5133858;27;20111;-68
2021/05/14 09:02:46;;;;;;;13.67;6.90;;;12.00;77.80;;;;;;5134145;27;20059;-68
2021/05/14 09:05:29;;;;;;;12.37;5.90;;;12.00;77.40;;;;;;5133978;27;20047;-68
2021/05/14 09:07:57;;;;;;;14.07;6.73;;;12.00;76.80;;;;;;5133985;27;20049;-69
2021/05/14 09:10:27;;;;;;;10.80;5.97;;;12.10;76.80;;;;;;5134154;27;20051;-68
2021/05/14 09:12:53;;;;;;;10.77;5.33;;;12.20;76.80;;;;;;5133288;27;20457;-69
2021/05/14 09:15:27;;;;;;;14.00;5.77;;;12.30;76.80;;;;;;5133928;27;20155;-68
2021/05/14 09:18:29;;;;;;;10.80;5.33;;;12.40;76.00;;;;;;5133985;27;20047;-68
2021/05/14 09:21:03;;;;;;;14.90;5.33;;;12.40;74.90;;;;;;5070474;28;20048;-70
2021/05/14 09:23:32;;;;;;;11.67;6.00;;;12.50;76.50;;;;;;5124606;27;20043;-68
2021/05/14 09:26:12;;;;;;;10.40;5.87;;;12.60;75.30;;;;;;5133277;27;20433;-68
2021/05/14 09:28:47;;;;;;;11.93;5.97;;;12.60;74.80;;;;;;5133587;27;20491;-69
2021/05/14 09:31:24;;;;;;;10.53;6.27;;;12.70;74.90;;;;;;5133042;27;20051;-69
2021/05/14 09:34:00;;;;;;;10.83;5.67;;;12.70;74.50;;;;;;5133096;27;20111;-69
2021/05/14 09:36:31;;;;;;;9.37;5.40;;;12.70;74.60;;;;;;5133406;27;20070;-68
2021/05/14 09:39:03;;;;;;;10.27;5.25;;;12.90;74.60;;;;;;5133303;27;20047;-68
2021/05/14 09:41:35;;;;;;;12.65;4.97;;;13.00;73.70;;;;;;5132692;27;20403;-69
2021/05/14 09:44:11;;;;;;;13.67;5.37;;;13.00;73.80;;;;;;5133604;27;20078;-68
2021/05/14 09:46:44;;;;;;;12.93;5.60;;;13.00;74.30;;;;;;5132764;27;20503;-69
2021/05/14 09:49:17;;;;;;;16.53;5.10;;;13.10;73.90;;;;;;5133717;27;20058;-69
2021/05/14 09:51:46;;;;;;;10.30;4.50;;;13.20;73.40;;;;;;5133289;27;20058;-68
2021/05/14 09:54:27;;;;;;;9.13;4.37;;;13.30;73.40;;;;;;5132733;27;20043;-68
2021/05/14 10:00:04;;;;;;;11.63;3.80;;;13.80;70.60;;;;;;5099533;27;20097;-68
2021/05/14 10:02:36;;;;;;;9.87;4.03;;;13.90;71.30;;;;;;5132185;27;20138;-70
2021/05/14 10:05:06;;;;;;;12.13;3.87;;;14.00;71.00;;;;;;5132792;27;20502;-69
2021/05/14 10:07:33;;;;;;;10.13;4.30;;;14.00;70.40;;;;;;5132004;27;20042;-69
2021/05/14 10:10:08;;;;;;;11.47;4.33;;;14.00;70.60;;;;;;5132456;27;20082;-70
2021/05/14 10:12:35;;;;;;;9.50;4.10;;;14.00;70.00;;;;;;5132171;27;20502;-69
2021/05/14 10:15:02;;;;;;;10.77;4.17;;;14.00;69.90;;;;;;5131869;27;20165;-69
2021/05/14 10:17:30;;;;;;;13.00;4.77;;;13.90;69.90;;;;;;5132811;27;20051;-68
2021/05/14 10:19:58;;;;;;;14.20;4.77;;;13.90;69.80;;;;;;5132529;27;20473;-69
2021/05/14 10:22:34;;;;;;;12.60;4.50;;;13.90;69.90;;;;;;5131538;27;20116;-68
2021/05/14 10:25:00;;;;;;;13.83;5.43;;;13.90;70.00;;;;;;5132345;27;20046;-69
2021/05/14 10:27:29;;;;;;;8.80;4.20;;;13.90;70.20;;;;;;5132736;27;20134;-69
2021/05/14 10:29:56;;;;;;;10.90;4.73;;;14.00;70.20;;;;;;5131846;27;20070;-69
2021/05/14 10:32:43;;;;;;;10.80;5.00;;;13.90;69.90;;;;;;5130420;27;20053;-69
2021/05/14 10:35:11;;;;;;;9.43;4.80;;;13.80;69.90;;;;;;5131053;27;20054;-69
2021/05/14 10:37:46;;;;;;;13.80;5.77;;;13.70;70.40;;;;;;5129874;27;20062;-69
2021/05/14 10:40:30;;;;;;;13.13;5.67;;;13.60;70.10;;;;;;5130737;27;20047;-69
2021/05/14 10:43:04;;;;;;;10.83;5.37;;;13.60;70.40;;;;;;5129709;27;20125;-70
2021/05/14 10:45:35;;;;;;;14.57;5.27;;;13.60;70.80;;;;;;5131146;27;20047;-69
2021/05/14 10:48:02;;;;;;;11.25;4.85;;;13.50;70.40;;;;;;5132466;27;20133;-69
2021/05/14 10:50:36;;;;;;;11.20;4.70;;;13.50;70.30;;;;;;5131644;27;20055;-69
2021/05/14 10:53:44;;;;;;;13.33;5.40;;;13.50;70.10;;;;;;5132281;27;20108;-69
2021/05/14 10:56:09;;;;;;;13.57;5.67;;;13.50;70.00;;;;;;5132080;27;20096;-69
2021/05/14 10:58:51;;;;;;;13.00;5.40;;;13.40;70.50;;;;;;5131050;27;20146;-69
2021/05/14 11:01:42;;;;;;;12.73;5.28;;;13.40;70.70;;;;;;5131992;27;20411;-69
2021/05/14 11:04:11;;;;;;;10.57;4.80;;;13.40;71.10;;;;;;5131855;27;20043;-70
2021/05/14 11:06:41;;;;;;;13.83;5.97;;;13.40;71.30;;;;;;5130104;27;20123;-70
2021/05/14 11:09:09;;;;;;;14.60;5.73;;;13.30;71.40;;;;;;5130757;27;20074;-70
2021/05/14 11:11:34;;;;;;;12.30;5.20;;;13.40;71.50;;;;;;5130220;27;20043;-70
2021/05/14 11:14:14;;;;;;;12.93;4.70;;;13.40;71.30;;;;;;5130259;27;20403;-70
2021/05/14 11:16:44;;;;;;;13.23;4.60;;;13.40;70.80;;;;;;5130152;27;20051;-70
2021/05/14 11:19:26;;;;;;;12.00;5.03;;;13.40;71.20;;;;;;5129238;27;20547;-69
2021/05/14 11:22:14;;;;;;;;;;;13.50;70.60;;;;;;5130668;27;20043;-69
2021/05/14 11:24:52;;;;;;;11.90;5.10;;;13.60;70.40;;;;;;5130290;27;19930;-70
2021/05/14 11:27:34;;;;;;;9.30;5.47;;;13.70;70.70;;;;;;5130543;27;20047;-70
2021/05/14 11:30:01;;;;;;;12.80;4.83;;;14.00;69.90;;;;;;5131879;27;20050;-69
2021/05/14 11:32:38;;;;;;;17.27;6.53;;;14.10;69.30;;;;;;5131148;27;20050;-70
2021/05/14 11:35:24;;;;;;;9.20;5.27;;;14.10;69.10;;;;;;5131698;27;20046;-70
2021/05/14 11:37:54;;;;;;;10.30;5.40;;;14.20;67.30;;;;;;5132091;27;20054;-69
2021/05/14 11:40:24;;;;;;;13.35;5.75;;;14.10;68.60;;;;;;5131040;27;20483;-70
2021/05/14 11:42:52;;;;;;;10.77;4.47;;;14.00;68.70;;;;;;5131988;27;20047;-70
2021/05/14 11:45:26;;;;;;;12.63;6.10;;;14.00;68.70;;;;;;5131801;27;20077;-70
2021/05/14 11:48:28;;;;;;;10.80;5.85;;;13.90;68.80;;;;;;5130238;28;20441;-70
2021/05/14 11:50:57;;;;;;;13.32;6.03;;;14.00;69.00;;;;;;5131925;27;20077;-70
2021/05/14 11:53:24;;;;;;;12.93;6.23;;;14.20;69.10;;;;;;5131011;27;20047;-70
2021/05/14 11:55:51;;;;;;;13.80;7.17;;;14.40;68.60;;;;;;5135706;27;20130;-70
2021/05/14 11:58:17;;;;;;;11.90;6.37;;;14.50;67.80;;;;;;5135756;27;20058;-69
2021/05/14 12:00:45;;;;;;;9.70;6.23;;;14.40;67.50;;;;;;5134727;27;20047;-71
2021/05/14 12:03:17;;;;;;;12.67;6.93;;;14.40;68.10;;;;;;5135629;27;20067;-70
2021/05/14 12:05:44;;;;;;;16.23;7.83;;;14.40;68.20;;;;;;5135394;27;20039;-71
2021/05/14 12:08:12;;;;;;;18.57;8.53;;;14.50;68.20;;;;;;5135136;27;20187;-70
2021/05/14 12:10:51;;;;;;;12.80;7.87;;;14.60;67.70;;;;;;5135243;27;20487;-70
2021/05/14 12:13:19;;;;;;;11.93;7.27;;;14.80;67.20;;;;;;5135391;27;20051;-70
2021/05/14 12:15:45;;;;;;;9.70;6.60;;;14.90;66.90;;;;;;5135045;27;20043;-70
2021/05/14 12:18:11;;;;;;;13.07;7.33;;;14.90;66.60;;;;;;5135601;27;20055;-70
2021/05/14 12:20:40;;;;;;;13.63;7.90;;;14.90;66.50;;;;;;5135127;27;20047;-70
2021/05/14 12:23:12;;;;;;;12.40;7.53;;;14.90;66.40;;;;;;5134354;27;20080;-70
2021/05/14 12:25:45;;;;;;;11.27;6.97;;;15.00;66.20;;;;;;5134846;27;20406;-70
2021/05/14 12:28:33;;;;;;;13.90;8.13;;;15.00;66.10;;;;;;5134191;27;20112;-70
2021/05/14 12:31:22;;;;;;;14.43;6.47;;;15.00;65.70;;;;;;5135151;27;20063;-70
2021/05/14 12:33:56;;;;;;;13.83;6.87;;;15.10;65.80;;;;;;5126440;27;20074;-70
2021/05/14 12:36:32;;;;;;;15.47;6.67;;;15.10;65.60;;;;;;5134276;27;20043;-70
2021/05/14 12:39:11;;;;;;;10.37;6.23;;;15.20;65.30;;;;;;5134928;27;20047;-69
2021/05/14 12:41:41;;;;;;;11.13;6.23;;;15.30;64.80;;;;;;5134720;27;20491;-70
2021/05/14 12:44:13;;;;;;;15.07;7.53;;;15.40;64.40;;;;;;5134568;27;20118;-70
2021/05/14 12:47:00;;;;;;;14.87;6.43;;;15.40;64.40;;;;;;5134772;27;20064;-69
2021/05/14 12:49:27;;;;;;;10.33;6.67;;;15.30;64.20;;;;;;5133908;27;20074;-70
2021/05/14 12:52:26;;;;;;;10.20;6.77;;;15.30;64.40;;;;;;5134870;27;20043;-70
2021/05/14 12:54:58;;;;;;;11.53;5.77;;;15.30;64.00;;;;;;5110285;27;20047;-70